Connerville, OK

9:54 AM CDT on August 23, 2014 (GMT -0500)
Ardmore Municipal | Change Station
CLOSE
Current Station
Airport
Location: Ardmore,
Elevation: 761 ft
Nearby Weather Stations

Elev 761 ft 34.30 °N, 97.01 °W | Updated 59 minutes ago

Clear
Clear
81 °F
Feels Like 85 °F
N
4
Wind Variable Wind from SSW

Today
High -- | Low -- °F
--% Chance of Precip.
Yesterday
High -- | Low -- °F
Precip. -- in
6:53 AM 8:04 PM
Waning Crescent, 4% visible
Pressure 29.99 in
Visibility 10.0 miles
Clouds Clear
Heat Index 85 °F
Dew Point 72 °F
Humidity 74%
Rainfall 0.00 in
Snow Depth Not available.
UV 2 out of 12
Pollen 10.00 out of 12
Air Quality Not available.
Flu Activity Not available.
METAR KADM 231355Z 20003KT 10SM SKC 27/22 A2999

More Conditions Fewer Conditions

Pressure 29.99 in
Visibility 10.0 miles
Clouds Clear
Heat Index 85 °F
Dew Point 72 °F
Humidity 74%
Rainfall 0.00 in
Snow Depth Not available.
UV 2 out of 12
Pollen 10.00 out of 12
Air Quality Not available.
Flu Activity Not available.
METAR KADM 231355Z 20003KT 10SM SKC 27/22 A2999

More Conditions Fewer Conditions

10-Day Weather Forecast

Almanac

Astronomy

Aug. 23, 2014 Rise Set
Actual Time 6:53 AM CDT 8:04 PM CDT
Civil Twilight 6:27 AM CDT 8:30 PM CDT
Nautical Twilight 5:56 AM CDT 9:01 PM CDT
Astronomical Twilight 5:24 AM CDT 9:33 PM CDT
Moon 5:12 AM CDT 6:49 PM CDT
Length of Visible Light 14h 02m
Length of Day
13h 10m
Tomorrow will be 1m 58s shorter.
Waning Crescent, 4% of the Moon is Illuminated
Today
Waning Crescent
Aug 25
New
Sep 2
First Quarter
Sep 8
Full
Sep 15
Last Quarter

Today's Extremes

State Highs State Lows

Community

WunderPhotos

Upload Photos

1,746,477 photos uploaded!

WunderBlogs® & News

By Dr. Jeff Masters
Director of Meteorology, Weather Underground
By Kari Strenfel
Meteorologist, Weather Underground
By Christopher C. Burt
Weather Historian, Weather Underground
August 23, 2014
August 23, 2014
August 23, 2014

Nearby

Snow Depth

Station Depth Elevation
No new snow has been reported.

Earthquake Activity

City Distance Mag. Time & Date
Yale, Oklahoma 125 miles 2.5 11:22 AM CDT
2014-08-18
Waukomis, Oklahoma 146 miles 2.6 9:40 AM CDT
2014-08-18
Yale, Oklahoma 123 miles 2.5 8:07 AM CDT
2014-08-18
Boley, Oklahoma 70 miles 3.4 9:50 PM CDT
2014-08-17
Minimum magnitude displayed is 2.5.

Coastal Water Temperatures

Place Temperature
No Stations Reporting

Nearby Weather Stations